createdAt,value
2022-12-29T00:01:02.873Z,11.14
2022-12-29T00:03:29.582Z,11.14
2022-12-29T00:05:58.451Z,11.13
2022-12-29T00:08:41.187Z,11.15
2022-12-29T00:11:12.488Z,11.19
2022-12-29T00:14:01.753Z,11.17
2022-12-29T00:16:33.187Z,11.20
2022-12-29T00:19:27.681Z,11.20
2022-12-29T00:22:15.794Z,11.23
2022-12-29T00:25:01.215Z,11.25
2022-12-29T00:27:50.574Z,11.26
2022-12-29T00:30:41.301Z,11.23
2022-12-29T00:33:40.294Z,11.28
2022-12-29T00:36:20.900Z,11.31
2022-12-29T00:39:31.324Z,11.29
2022-12-29T00:42:27.565Z,11.30
2022-12-29T00:44:56.438Z,11.30
2022-12-29T00:47:28.587Z,11.29
2022-12-29T00:49:54.972Z,11.34
2022-12-29T00:52:24.194Z,11.33
2022-12-29T00:54:53.449Z,11.32
2022-12-29T00:57:19.910Z,11.34
2022-12-29T00:59:50.654Z,11.34
2022-12-29T01:02:17.143Z,11.33
2022-12-29T01:04:44.427Z,11.33
2022-12-29T01:07:15.438Z,11.30
2022-12-29T01:10:04.027Z,11.26
2022-12-29T01:12:45.797Z,11.28
2022-12-29T01:15:18.750Z,11.26
2022-12-29T01:17:48.059Z,11.25
2022-12-29T01:20:43.278Z,11.21
2022-12-29T01:23:09.642Z,11.15
2022-12-29T01:25:36.069Z,11.06
2022-12-29T01:28:13.031Z,11.02
2022-12-29T01:30:39.374Z,10.99
2022-12-29T01:33:18.190Z,10.92
2022-12-29T01:35:56.937Z,10.85
2022-12-29T01:38:23.290Z,10.85
2022-12-29T01:40:50.691Z,10.80
2022-12-29T01:43:19.367Z,10.78
2022-12-29T01:51:28.734Z,10.72
2022-12-29T01:53:59.795Z,10.72
2022-12-29T01:56:29.642Z,10.73
2022-12-29T01:59:04.436Z,10.74
2022-12-29T02:01:30.959Z,10.79
2022-12-29T02:03:57.806Z,10.80
2022-12-29T02:06:59.047Z,10.78
2022-12-29T02:09:38.793Z,10.79
2022-12-29T02:12:07.775Z,10.79
2022-12-29T02:14:34.200Z,10.80
2022-12-29T02:17:41.341Z,10.79
2022-12-29T02:20:45.061Z,10.82
2022-12-29T02:23:45.403Z,10.80
2022-12-29T02:26:39.448Z,10.79
2022-12-29T02:29:27.433Z,10.78
2022-12-29T02:32:00.941Z,10.77
2022-12-29T02:34:50.613Z,10.81
2022-12-29T02:37:46.989Z,10.82
2022-12-29T02:40:37.966Z,10.77
2022-12-29T02:43:40.114Z,10.77
2022-12-29T02:46:31.422Z,10.79
2022-12-29T02:49:33.718Z,10.80
2022-12-29T02:52:34.982Z,10.84
2022-12-29T02:55:01.388Z,10.82
2022-12-29T02:57:27.684Z,10.86
2022-12-29T03:00:28.138Z,10.89
2022-12-29T03:03:21.721Z,10.88
2022-12-29T03:06:12.019Z,10.84
2022-12-29T03:09:24.759Z,10.81
2022-12-29T03:12:12.492Z,10.79
2022-12-29T03:15:23.793Z,10.81
2022-12-29T03:17:59.673Z,10.77
2022-12-29T03:20:36.238Z,10.70
2022-12-29T03:23:08.319Z,10.65
2022-12-29T03:25:40.818Z,10.71
2022-12-29T03:28:22.951Z,10.73
2022-12-29T03:33:39.006Z,10.70
2022-12-29T03:36:18.579Z,10.63
2022-12-29T03:39:01.125Z,10.56
2022-12-29T03:41:32.677Z,10.49
2022-12-29T03:44:03.894Z,10.46
2022-12-29T03:46:30.364Z,10.46
2022-12-29T03:48:56.774Z,10.49
2022-12-29T03:51:25.534Z,10.45
2022-12-29T03:53:54.721Z,10.42
2022-12-29T03:56:21.166Z,10.42
2022-12-29T03:58:51.809Z,10.36
2022-12-29T04:01:18.388Z,10.35
2022-12-29T04:03:45.178Z,10.33
2022-12-29T04:06:21.799Z,10.28
2022-12-29T04:08:48.202Z,10.23
2022-12-29T04:11:28.336Z,10.23
2022-12-29T04:14:06.597Z,10.22
2022-12-29T04:16:36.632Z,10.24
2022-12-29T04:19:04.057Z,10.23
2022-12-29T04:21:30.438Z,10.25
2022-12-29T04:23:56.859Z,10.32
2022-12-29T04:26:31.500Z,10.39
2022-12-29T04:28:57.896Z,10.42
2022-12-29T04:31:27.241Z,10.46
2022-12-29T04:33:58.293Z,10.44
2022-12-29T04:36:29.712Z,10.47
2022-12-29T04:39:00.033Z,10.44
2022-12-29T04:41:26.556Z,10.43
2022-12-29T04:44:01.448Z,10.53
2022-12-29T04:46:27.860Z,10.55
2022-12-29T04:48:55.142Z,10.53
2022-12-29T04:51:21.519Z,10.52
2022-12-29T04:53:47.917Z,10.52
2022-12-29T04:56:14.480Z,10.48
2022-12-29T04:58:54.111Z,10.46
2022-12-29T05:01:27.623Z,10.46
2022-12-29T05:03:54.158Z,10.46
2022-12-29T05:06:20.602Z,10.46
2022-12-29T05:08:47.014Z,10.52
2022-12-29T05:11:13.475Z,10.51
2022-12-29T05:13:49.270Z,10.47
2022-12-29T05:16:15.742Z,10.45
2022-12-29T05:18:42.280Z,10.41
2022-12-29T05:21:08.672Z,10.41
2022-12-29T05:23:43.590Z,10.44
2022-12-29T05:26:10.010Z,10.39
2022-12-29T05:28:39.998Z,10.37
2022-12-29T05:31:09.515Z,10.41
2022-12-29T05:33:36.012Z,10.40
2022-12-29T05:36:15.392Z,10.44
2022-12-29T05:38:44.581Z,10.37
2022-12-29T05:41:13.838Z,10.41
2022-12-29T05:43:40.732Z,10.39
2022-12-29T05:46:28.875Z,10.37
2022-12-29T05:48:57.571Z,10.39
2022-12-29T05:51:23.987Z,10.37
2022-12-29T05:53:51.104Z,10.35
2022-12-29T05:56:23.715Z,10.42
2022-12-29T05:58:50.245Z,10.41
2022-12-29T06:01:20.002Z,10.36
2022-12-29T06:03:49.707Z,10.36
2022-12-29T06:06:24.082Z,10.35
2022-12-29T06:08:50.472Z,10.38
2022-12-29T06:11:16.825Z,10.41
2022-12-29T06:16:27.459Z,10.33
2022-12-29T06:18:56.662Z,10.30
2022-12-29T06:21:23.082Z,10.29
2022-12-29T06:23:52.553Z,10.27
2022-12-29T06:26:22.077Z,10.24
2022-12-29T06:28:56.382Z,10.23
2022-12-29T06:31:22.943Z,10.14
2022-12-29T06:33:50.290Z,10.08
2022-12-29T06:36:17.635Z,10.08
2022-12-29T06:38:47.461Z,10.04
2022-12-29T06:41:14.026Z,9.97
2022-12-29T06:43:51.083Z,9.93
2022-12-29T06:46:17.487Z,9.91
2022-12-29T06:48:47.521Z,9.93
2022-12-29T06:51:16.814Z,9.95
2022-12-29T06:53:56.009Z,9.93
2022-12-29T06:56:22.467Z,9.98
2022-12-29T06:58:53.263Z,9.97
2022-12-29T07:01:21.079Z,10.01
2022-12-29T07:03:47.640Z,10.04
2022-12-29T07:06:17.718Z,10.09
2022-12-29T07:08:46.957Z,10.10
2022-12-29T07:11:21.143Z,10.08
2022-12-29T07:13:47.714Z,10.00
2022-12-29T07:16:14.138Z,9.86
2022-12-29T07:18:44.935Z,9.73
2022-12-29T07:21:14.221Z,9.65
2022-12-29T07:23:45.872Z,9.59
2022-12-29T07:26:18.604Z,9.47
2022-12-29T07:28:51.423Z,9.38
2022-12-29T07:31:20.396Z,9.31
2022-12-29T07:33:50.607Z,9.24
2022-12-29T07:36:21.114Z,9.16
2022-12-29T07:38:47.548Z,9.08
2022-12-29T07:41:16.361Z,9.09
2022-12-29T07:43:49.850Z,9.12
2022-12-29T07:46:53.863Z,9.16
2022-12-29T07:49:07.745Z,9.28
2022-12-29T07:51:34.369Z,9.29
2022-12-29T07:54:01.900Z,9.29
2022-12-29T07:56:32.801Z,9.33
2022-12-29T07:59:01.783Z,9.36
2022-12-29T08:01:34.634Z,9.46
2022-12-29T08:04:01.232Z,9.50
2022-12-29T08:06:32.259Z,9.50
2022-12-29T08:09:01.621Z,9.51
2022-12-29T08:11:35.001Z,9.55
2022-12-29T08:14:01.484Z,9.63
2022-12-29T08:16:27.990Z,9.64
2022-12-29T08:19:06.485Z,9.70
2022-12-29T08:21:33.798Z,9.77
2022-12-29T08:24:02.743Z,9.81
2022-12-29T08:26:29.182Z,9.85
2022-12-29T08:28:56.663Z,9.93
2022-12-29T08:31:25.130Z,9.93
2022-12-29T08:33:54.754Z,10.02
2022-12-29T08:36:23.352Z,10.10
2022-12-29T08:38:57.057Z,10.14
2022-12-29T08:41:23.555Z,10.17
2022-12-29T08:43:53.441Z,10.15
2022-12-29T08:46:20.424Z,10.16
2022-12-29T08:48:46.854Z,10.19
2022-12-29T08:51:20.136Z,10.19
2022-12-29T08:53:49.398Z,10.22
2022-12-29T08:56:19.525Z,10.23
2022-12-29T08:58:49.009Z,10.17
2022-12-29T09:01:19.065Z,10.14
2022-12-29T09:06:40.191Z,10.21
2022-12-29T09:09:07.632Z,10.22
2022-12-29T09:11:34.086Z,10.23
2022-12-29T09:14:00.802Z,10.28
2022-12-29T09:16:31.584Z,10.28
2022-12-29T09:19:02.067Z,10.30
2022-12-29T09:21:32.335Z,10.29
2022-12-29T09:24:01.692Z,10.27
2022-12-29T09:26:28.074Z,10.27
2022-12-29T09:29:02.829Z,10.23
2022-12-29T09:31:29.337Z,10.21
2022-12-29T09:33:56.130Z,10.18
2022-12-29T09:36:22.804Z,10.10
2022-12-29T09:38:55.001Z,10.04
2022-12-29T09:41:40.030Z,10.04
2022-12-29T09:44:22.900Z,9.95
2022-12-29T09:46:55.261Z,9.91
2022-12-29T09:49:40.623Z,9.84
2022-12-29T09:52:32.626Z,9.80
2022-12-29T09:55:24.416Z,9.80
2022-12-29T09:58:30.079Z,9.75
2022-12-29T10:01:38.165Z,9.77
2022-12-29T10:04:08.785Z,9.76
2022-12-29T10:10:06.328Z,9.76
2022-12-29T10:12:50.647Z,9.79
2022-12-29T10:15:40.787Z,9.78
2022-12-29T10:18:44.934Z,9.83
2022-12-29T10:21:50.325Z,9.82
2022-12-29T10:24:27.227Z,9.79
2022-12-29T10:26:57.970Z,9.82
2022-12-29T10:30:00.969Z,9.89
2022-12-29T10:32:47.472Z,9.88
2022-12-29T10:35:22.967Z,9.85
2022-12-29T10:38:11.725Z,9.82
2022-12-29T10:40:46.359Z,9.84
2022-12-29T10:43:39.542Z,9.88
2022-12-29T10:46:15.398Z,9.88
2022-12-29T10:48:48.593Z,9.87
2022-12-29T10:51:32.505Z,9.90
2022-12-29T10:54:07.063Z,9.95
2022-12-29T10:56:58.513Z,9.99
2022-12-29T10:59:29.413Z,9.97
2022-12-29T11:02:17.517Z,9.92
2022-12-29T11:05:18.248Z,9.95
2022-12-29T11:07:44.913Z,9.93
2022-12-29T11:10:43.573Z,9.98
2022-12-29T11:13:21.880Z,10.03
2022-12-29T11:15:50.703Z,10.06
2022-12-29T11:18:26.950Z,10.05
2022-12-29T11:21:00.286Z,10.14
2022-12-29T11:23:41.670Z,10.20
2022-12-29T11:26:31.760Z,10.27
2022-12-29T11:29:30.960Z,10.36
2022-12-29T11:32:00.013Z,10.44
2022-12-29T11:34:36.821Z,10.46
2022-12-29T11:37:11.631Z,10.45
2022-12-29T11:39:42.070Z,10.41
2022-12-29T11:42:40.694Z,10.42
2022-12-29T11:45:19.795Z,10.36
2022-12-29T11:47:53.745Z,10.30
2022-12-29T11:50:32.383Z,10.31
2022-12-29T11:53:07.033Z,10.37
2022-12-29T11:55:33.856Z,10.43
2022-12-29T11:58:09.090Z,10.41
2022-12-29T12:00:44.426Z,10.37
2022-12-29T12:03:33.169Z,10.40
2022-12-29T12:06:05.531Z,10.37
2022-12-29T12:09:00.908Z,10.29
2022-12-29T12:11:43.123Z,10.27
2022-12-29T12:14:18.290Z,10.21
2022-12-29T12:16:50.417Z,10.11
2022-12-29T12:19:41.569Z,10.02
2022-12-29T12:22:33.851Z,10.04
2022-12-29T12:25:06.403Z,10.14
2022-12-29T12:27:44.815Z,10.15
2022-12-29T12:30:27.268Z,10.21
2022-12-29T12:33:08.651Z,10.28
2022-12-29T12:36:05.032Z,10.34
2022-12-29T12:38:34.091Z,10.34
2022-12-29T12:41:19.718Z,10.35
2022-12-29T12:44:10.257Z,10.40
2022-12-29T12:46:58.171Z,10.48
2022-12-29T12:49:52.542Z,10.54
2022-12-29T12:52:53.480Z,10.56
2022-12-29T12:56:01.758Z,10.60
2022-12-29T12:58:51.055Z,10.65
2022-12-29T13:01:44.485Z,10.65
2022-12-29T13:04:29.374Z,10.66
2022-12-29T13:07:30.072Z,10.66
2022-12-29T13:10:03.742Z,10.66
2022-12-29T13:13:05.674Z,10.67
2022-12-29T13:16:14.710Z,10.66
2022-12-29T13:18:54.326Z,10.67
2022-12-29T13:22:05.763Z,10.66
2022-12-29T13:24:59.039Z,10.64
2022-12-29T13:27:40.724Z,10.62
2022-12-29T13:30:30.995Z,10.58
2022-12-29T13:33:40.817Z,10.54
2022-12-29T13:36:37.398Z,10.54
2022-12-29T13:39:24.808Z,10.53
2022-12-29T13:41:57.466Z,10.53
2022-12-29T13:44:36.805Z,10.54
2022-12-29T13:47:30.898Z,10.52
2022-12-29T13:53:15.924Z,10.55
2022-12-29T13:56:04.507Z,10.54
2022-12-29T13:58:49.577Z,10.52
2022-12-29T14:01:32.830Z,10.54
2022-12-29T14:04:01.656Z,10.50
2022-12-29T14:06:49.902Z,10.48
2022-12-29T14:09:53.323Z,10.45
2022-12-29T14:12:30.661Z,10.43
2022-12-29T14:15:24.194Z,10.34
2022-12-29T14:18:18.040Z,10.23
2022-12-29T14:21:09.130Z,10.11
2022-12-29T14:23:53.572Z,10.05
2022-12-29T14:26:31.911Z,10.00
2022-12-29T14:29:36.855Z,9.94
2022-12-29T14:32:09.446Z,9.89
2022-12-29T14:34:41.078Z,9.84
2022-12-29T14:37:22.953Z,9.79
2022-12-29T14:39:53.516Z,9.74
2022-12-29T14:42:23.718Z,9.67
2022-12-29T14:45:15.698Z,9.58
2022-12-29T14:47:48.558Z,9.49
2022-12-29T14:50:46.082Z,9.42
2022-12-29T14:53:45.335Z,9.39
2022-12-29T14:56:14.353Z,9.34
2022-12-29T14:59:03.832Z,9.33
2022-12-29T15:01:33.597Z,9.34
2022-12-29T15:04:13.968Z,9.30
2022-12-29T15:06:48.508Z,9.31
2022-12-29T15:09:43.724Z,9.31
2022-12-29T15:12:22.396Z,9.32
2022-12-29T15:15:03.313Z,9.30
2022-12-29T15:17:35.379Z,9.32
2022-12-29T15:20:22.547Z,9.31
2022-12-29T15:23:01.681Z,9.33
2022-12-29T15:25:28.134Z,9.33
2022-12-29T15:28:28.830Z,9.40
2022-12-29T15:31:07.990Z,9.45
2022-12-29T15:33:40.483Z,9.46
2022-12-29T15:36:24.487Z,9.50
2022-12-29T15:38:54.603Z,9.54
2022-12-29T15:41:36.551Z,9.55
2022-12-29T15:44:23.525Z,9.54
2022-12-29T15:46:51.383Z,9.54
2022-12-29T15:49:17.819Z,9.57
2022-12-29T15:51:44.677Z,9.59
2022-12-29T15:54:23.201Z,9.60
2022-12-29T15:56:53.303Z,9.61
2022-12-29T15:59:27.709Z,9.60
2022-12-29T16:01:59.299Z,9.65
2022-12-29T16:04:29.750Z,9.62
2022-12-29T16:07:23.170Z,9.63
2022-12-29T16:10:01.788Z,9.60
2022-12-29T16:12:34.915Z,9.60
2022-12-29T16:15:14.190Z,9.62
2022-12-29T16:17:58.962Z,9.62
2022-12-29T16:20:35.235Z,9.62
2022-12-29T16:23:01.766Z,9.62
2022-12-29T16:25:38.678Z,9.62
2022-12-29T16:28:23.040Z,9.60
2022-12-29T16:31:21.285Z,9.56
2022-12-29T16:33:57.274Z,9.55
2022-12-29T16:36:43.911Z,9.52
2022-12-29T16:39:26.178Z,9.50
2022-12-29T16:41:53.228Z,9.50
2022-12-29T16:44:32.132Z,9.52
2022-12-29T16:47:10.817Z,9.48
2022-12-29T16:49:44.043Z,9.43
2022-12-29T16:52:34.881Z,9.33
2022-12-29T16:55:05.468Z,9.25
2022-12-29T16:57:37.470Z,9.16
2022-12-29T17:00:08.830Z,9.12
2022-12-29T17:02:50.423Z,9.12
2022-12-29T17:05:20.524Z,9.06
2022-12-29T17:07:54.946Z,9.03
2022-12-29T17:10:44.135Z,8.98
2022-12-29T17:13:14.100Z,8.97
2022-12-29T17:15:40.558Z,8.97
2022-12-29T17:18:13.473Z,8.95
2022-12-29T17:20:41.161Z,8.95
2022-12-29T17:23:28.485Z,8.91
2022-12-29T17:25:55.265Z,8.88
2022-12-29T17:28:32.997Z,8.87
2022-12-29T17:31:03.232Z,8.86
2022-12-29T17:33:35.161Z,8.83
2022-12-29T17:36:01.543Z,8.85
2022-12-29T17:38:30.681Z,8.84
2022-12-29T17:40:59.962Z,8.83
2022-12-29T17:43:36.483Z,8.81
2022-12-29T17:46:08.485Z,8.79
2022-12-29T17:48:51.507Z,8.77
2022-12-29T17:51:24.141Z,8.67
2022-12-29T17:53:52.007Z,8.65
2022-12-29T17:56:18.864Z,8.65
2022-12-29T17:58:49.473Z,8.63
2022-12-29T18:01:23.647Z,8.56
2022-12-29T18:03:53.322Z,8.56
2022-12-29T18:06:19.771Z,8.56
2022-12-29T18:08:49.253Z,8.55
2022-12-29T18:11:26.134Z,8.56
2022-12-29T18:13:54.370Z,8.51
2022-12-29T18:16:25.427Z,8.52
2022-12-29T18:19:20.094Z,8.49
2022-12-29T18:21:47.611Z,8.44
2022-12-29T18:24:18.199Z,8.47
2022-12-29T18:26:47.422Z,8.47
2022-12-29T18:29:14.014Z,8.46
2022-12-29T18:31:43.234Z,8.39
2022-12-29T18:34:15.442Z,8.36
2022-12-29T18:36:50.063Z,8.37
2022-12-29T18:39:16.473Z,8.35
2022-12-29T18:41:47.424Z,8.40
2022-12-29T18:44:17.011Z,8.40
2022-12-29T18:46:50.983Z,8.40
2022-12-29T18:49:21.576Z,8.39
2022-12-29T18:51:50.673Z,8.40
2022-12-29T18:54:26.430Z,8.43
2022-12-29T18:56:56.003Z,8.45
2022-12-29T18:59:24.034Z,8.39
2022-12-29T19:01:50.911Z,8.44
2022-12-29T19:04:22.289Z,8.44
2022-12-29T19:06:48.756Z,8.40
2022-12-29T19:09:15.356Z,8.43
2022-12-29T19:11:41.828Z,8.48
2022-12-29T19:14:15.967Z,8.47
2022-12-29T19:16:45.655Z,8.47
2022-12-29T19:19:16.510Z,8.42
2022-12-29T19:21:46.299Z,8.45
2022-12-29T19:24:21.723Z,8.44
2022-12-29T19:26:49.583Z,8.45
2022-12-29T19:29:16.187Z,8.48
2022-12-29T19:31:42.677Z,8.49
2022-12-29T19:36:54.463Z,8.45
2022-12-29T19:39:21.259Z,8.46
2022-12-29T19:41:50.499Z,8.47
2022-12-29T19:44:19.641Z,8.42
2022-12-29T19:46:46.127Z,8.37
2022-12-29T19:49:12.517Z,8.31
2022-12-29T19:51:39.174Z,8.32
2022-12-29T19:54:09.725Z,8.30
2022-12-29T19:56:36.110Z,8.30
2022-12-29T19:59:02.478Z,8.29
2022-12-29T20:01:32.171Z,8.31
2022-12-29T20:04:03.652Z,8.31
2022-12-29T20:06:32.701Z,8.26
2022-12-29T20:09:04.636Z,8.24
2022-12-29T20:11:31.139Z,8.22
2022-12-29T20:14:06.172Z,8.17
2022-12-29T20:16:32.582Z,8.16
2022-12-29T20:19:04.368Z,8.15
2022-12-29T20:21:30.735Z,8.09
2022-12-29T20:23:57.074Z,8.04
2022-12-29T20:26:32.802Z,8.05
2022-12-29T20:29:00.022Z,8.04
2022-12-29T20:31:34.657Z,8.05
2022-12-29T20:34:01.280Z,8.05
2022-12-29T20:36:32.919Z,8.02
2022-12-29T20:39:04.989Z,8.00
2022-12-29T20:41:37.648Z,8.02
2022-12-29T20:44:07.860Z,8.02
2022-12-29T20:46:47.782Z,8.09
2022-12-29T20:49:16.584Z,8.13
2022-12-29T20:52:05.592Z,8.18
2022-12-29T20:54:38.685Z,8.24
2022-12-29T20:57:13.661Z,8.27
2022-12-29T20:59:47.146Z,8.30
2022-12-29T21:02:33.639Z,8.35
2022-12-29T21:07:48.833Z,8.40
2022-12-29T21:10:18.433Z,8.45
2022-12-29T21:12:45.047Z,8.44
2022-12-29T21:15:15.382Z,8.47
2022-12-29T21:17:43.780Z,8.51
2022-12-29T21:20:32.557Z,8.52
2022-12-29T21:23:05.597Z,8.51
2022-12-29T21:25:51.394Z,8.50
2022-12-29T21:28:18.521Z,8.48
2022-12-29T21:30:45.326Z,8.49
2022-12-29T21:33:24.882Z,8.41
2022-12-29T21:35:54.107Z,8.35
2022-12-29T21:38:24.592Z,8.31
2022-12-29T21:40:58.249Z,8.22
2022-12-29T21:43:27.169Z,8.22
2022-12-29T21:45:53.607Z,8.19
2022-12-29T21:48:24.971Z,8.14
2022-12-29T21:51:24.190Z,8.09
2022-12-29T21:54:17.295Z,8.02
2022-12-29T21:56:48.276Z,8.03
2022-12-29T21:59:39.580Z,8.02
2022-12-29T22:02:37.096Z,7.97
2022-12-29T22:05:29.218Z,7.93
2022-12-29T22:08:14.619Z,7.87
2022-12-29T22:11:05.740Z,7.86
2022-12-29T22:13:37.603Z,7.87
2022-12-29T22:16:09.801Z,7.85
2022-12-29T22:18:37.150Z,7.83
2022-12-29T22:21:23.897Z,7.80
2022-12-29T22:24:00.548Z,7.69
2022-12-29T22:26:29.018Z,7.70
2022-12-29T22:28:56.154Z,7.65
2022-12-29T22:31:29.458Z,7.63
2022-12-29T22:34:00.446Z,7.62
2022-12-29T22:36:28.313Z,7.59
2022-12-29T22:39:00.153Z,7.56
2022-12-29T22:41:29.371Z,7.55
2022-12-29T22:43:55.750Z,7.56
2022-12-29T22:46:31.004Z,7.56
2022-12-29T22:48:57.869Z,7.54
2022-12-29T22:51:24.739Z,7.54
2022-12-29T22:53:51.391Z,7.51
2022-12-29T22:56:18.697Z,7.50
2022-12-29T23:01:27.972Z,7.52
2022-12-29T23:04:45.395Z,7.47
2022-12-29T23:06:53.529Z,7.44
2022-12-29T23:09:25.195Z,7.49
2022-12-29T23:11:57.477Z,7.48
2022-12-29T23:14:27.993Z,7.48
2022-12-29T23:16:54.426Z,7.44
2022-12-29T23:19:20.889Z,7.44
2022-12-29T23:21:47.242Z,7.44
2022-12-29T23:24:14.651Z,7.42
2022-12-29T23:26:47.348Z,7.35
2022-12-29T23:29:19.218Z,7.36
2022-12-29T23:31:52.106Z,7.34
2022-12-29T23:34:18.545Z,7.28
2022-12-29T23:36:44.940Z,7.27
2022-12-29T23:39:21.131Z,7.35
2022-12-29T23:41:47.617Z,7.29
2022-12-29T23:44:16.604Z,7.26
2022-12-29T23:46:45.936Z,7.24
2022-12-29T23:49:12.808Z,7.26
2022-12-29T23:51:42.279Z,7.23
2022-12-29T23:54:11.872Z,7.17
2022-12-29T23:56:40.631Z,7.15
2022-12-29T23:59:07.826Z,7.14
